Jinghe, China
Current Conditions -  °F | °C
As of 7:00 AM on Thursday 27 Nov 2014 (Local Time) from ZWWW Reporting Station
Clear Clear  
Wind Chill:   Ceiling: Unl
Heat Index: 10°   Visibility: 6mi
Dew Point:   Wind: 4mph
Humidity: 73%   Direction: 260°W
Pressure: 30.09"   Gusts: NA
Location:  44.62°N, 82.9°E
Report Text: ZWWW 262300Z 26002MPS 230V290 CAVOK M12/M16 Q1019 BECMGTL00302000 FU
Loading
Personal Weather Stations






























Interactive Weather Map New forecast layout! Learn more

10-Day Weather Forecast

Advertisements
Track Severe Weather on mobile